02:48
Airports
History
Links
Donate
Help keep this website running!
PayPal
Bitcoin
This page is community maintained. The information is intended for PC simulator navigation or reference.
Always use approved charts for navigation.
MT75
Buchanan Ranch
Buchanan Ranch (MT75)
Great Falls, Montana, United States (59404)
4
Lat/Lng:47° 25' 48.84" N / 111° 27' 36.89" W
47.430234 / -111.460248
Elevation:3345'ft / 1020mMSL
ID / ICAO:MT75
Runways:1
Longest:05-23
Grass 917m / 3,010ft
Nearby Weather01:53 GMT 2018-02-21
Nearby weather at KGTF, Great Falls Intl located 5.5 nautical miles from MT75
Altimeter: 30.08
Visibility: 10.0 statute miles
Wind: 0 knots (from 000°)
Temp: -19°c / -2°f
Humidity: 64.4%

METAR: KGTF 210153Z 00000KT 10SM CLR M19/M24 A3008 RMK AO2 SLP291 T11891239

(Powered by phpweather)
Nearby VORs <50NM
Nearby NDBs
Runway 05 / 23
Dimensions:917.3 x 15.2m 3010' x 50'ft
Surface:Grass
Runway 05 [A]Runway 23 [B]
Heading:067°TH 247°TH
Lat:
Lng:
47° 25' 43.05"N
111° 27' 57.05"W
47° 25' 54.63"N
111° 27' 16.74"W
User Notes and Comments
47° 25' 48.84" N / 111° 27' 36.89" W
Distance To
Airport ID:
Nearby Airports
(R) Bair 1.9 NM
MT33 SW 221°
(R) Smith Farms 2.2 NM
MT76 SSW 192°
(C) Great Falls Intl 5.5 NM
KGTF ( WX ) NE 49°
4 Ranch Strip 10.7 NM
MT26 ENE 73°
(C) Malmstrom LRRS 13.7 NM
KGFA ENE 67°
(R) Horner Field 14.2 NM
MT40 NE 38°
4 Cascade 16.5 NM
78S SW 228°
VFR Chart
Flight Planning at SkyVector.com